createdAt,value
2023-01-25T00:02:19.932Z,12.35
2023-01-25T00:04:50.123Z,11.48
2023-01-25T00:07:19.257Z,11.52
2023-01-25T00:09:48.560Z,11.43
2023-01-25T00:12:17.428Z,12.65
2023-01-25T00:14:46.898Z,17.13
2023-01-25T00:17:15.314Z,14.88
2023-01-25T00:19:54.453Z,12.80
2023-01-25T00:22:23.023Z,13.02
2023-01-25T00:24:51.544Z,14.98
2023-01-25T00:27:20.580Z,19.73
2023-01-25T00:29:50.041Z,18.55
2023-01-25T00:32:35.343Z,22.00
2023-01-25T00:35:06.323Z,18.45
2023-01-25T00:37:41.205Z,18.80
2023-01-25T00:40:11.424Z,19.58
2023-01-25T00:42:42.080Z,23.95
2023-01-25T00:45:13.930Z,22.92
2023-01-25T00:47:42.509Z,25.95
2023-01-25T00:50:14.578Z,23.10
2023-01-25T00:52:46.940Z,23.35
2023-01-25T00:55:15.286Z,23.15
2023-01-25T00:57:44.106Z,25.05
2023-01-25T01:00:16.273Z,26.58
2023-01-25T01:02:46.387Z,24.30
2023-01-25T01:05:17.174Z,21.98
2023-01-25T01:07:46.921Z,25.70
2023-01-25T01:10:16.520Z,23.20
2023-01-25T01:12:45.873Z,26.13
2023-01-25T01:15:17.466Z,24.58
2023-01-25T01:17:46.104Z,29.45
2023-01-25T01:20:18.101Z,25.75
2023-01-25T01:22:46.683Z,26.80
2023-01-25T01:25:15.129Z,23.15
2023-01-25T01:27:43.961Z,28.30
2023-01-25T01:30:13.805Z,23.45
2023-01-25T01:32:45.281Z,24.73
2023-01-25T01:35:13.966Z,26.23
2023-01-25T01:37:45.434Z,27.77
2023-01-25T01:40:15.855Z,29.05
2023-01-25T01:43:00.351Z,30.75
2023-01-25T01:45:47.740Z,26.60
2023-01-25T01:48:18.400Z,29.13
2023-01-25T01:50:47.461Z,27.83
2023-01-25T01:53:17.257Z,26.40
2023-01-25T01:55:45.813Z,25.65
2023-01-25T01:58:14.485Z,27.60
2023-01-25T02:00:43.800Z,24.10
2023-01-25T02:03:12.906Z,22.77
2023-01-25T02:05:45.209Z,28.92
2023-01-25T02:08:15.317Z,23.17
2023-01-25T02:10:45.877Z,29.60
2023-01-25T02:13:14.528Z,28.08
2023-01-25T02:15:44.751Z,27.77
2023-01-25T02:18:13.413Z,26.60
2023-01-25T02:20:43.721Z,27.42
2023-01-25T02:23:17.963Z,27.40
2023-01-25T02:25:48.520Z,24.80
2023-01-25T02:28:20.215Z,24.45
2023-01-25T02:30:49.894Z,26.45
2023-01-25T02:33:18.725Z,28.13
2023-01-25T02:35:51.425Z,29.48
2023-01-25T02:38:21.344Z,30.75
2023-01-25T02:40:55.390Z,24.20
2023-01-25T02:43:24.654Z,27.70
2023-01-25T02:45:58.395Z,27.10
2023-01-25T02:48:26.859Z,24.92
2023-01-25T02:50:55.488Z,30.98
2023-01-25T02:53:24.290Z,25.40
2023-01-25T02:55:54.369Z,25.88
2023-01-25T02:58:22.969Z,26.63
2023-01-25T03:00:51.464Z,27.77
2023-01-25T03:03:20.149Z,24.35
2023-01-25T03:05:48.702Z,27.13
2023-01-25T03:08:17.567Z,28.75
2023-01-25T03:10:46.146Z,28.17
2023-01-25T03:13:16.541Z,27.13
2023-01-25T03:15:45.178Z,28.75
2023-01-25T03:18:13.768Z,23.92
2023-01-25T03:20:43.643Z,29.63
2023-01-25T03:23:12.257Z,27.10
2023-01-25T03:25:40.821Z,23.65
2023-01-25T03:28:09.191Z,24.42
2023-01-25T03:30:39.302Z,24.83
2023-01-25T03:33:08.394Z,25.88
2023-01-25T03:35:36.939Z,25.95
2023-01-25T03:38:05.694Z,23.17
2023-01-25T03:40:34.391Z,23.33
2023-01-25T03:43:02.956Z,26.20
2023-01-25T03:45:31.488Z,29.77
2023-01-25T03:48:01.632Z,26.27
2023-01-25T03:50:30.351Z,26.33
2023-01-25T03:53:29.379Z,28.55
2023-01-25T03:56:02.011Z,19.38
2023-01-25T03:58:31.255Z,22.33
2023-01-25T04:01:00.517Z,23.88
2023-01-25T04:03:31.414Z,21.25
2023-01-25T04:06:00.242Z,26.52
2023-01-25T04:08:29.000Z,25.70
2023-01-25T04:10:59.014Z,30.70
2023-01-25T04:13:27.769Z,23.75
2023-01-25T04:15:56.670Z,27.60
2023-01-25T04:18:25.422Z,30.40
2023-01-25T04:20:55.546Z,23.33
2023-01-25T04:23:24.275Z,23.63
2023-01-25T04:25:56.041Z,25.02
2023-01-25T04:28:24.769Z,25.30
2023-01-25T04:30:54.826Z,27.45
2023-01-25T04:33:23.649Z,25.45
2023-01-25T04:35:52.507Z,28.27
2023-01-25T04:38:23.392Z,27.33
2023-01-25T04:40:52.496Z,29.08
2023-01-25T04:43:21.509Z,24.70
2023-01-25T04:45:50.328Z,24.52
2023-01-25T04:48:19.265Z,28.05
2023-01-25T04:50:47.806Z,24.45
2023-01-25T04:53:17.068Z,28.15
2023-01-25T04:55:48.368Z,26.73
2023-01-25T04:58:16.763Z,21.27
2023-01-25T05:00:44.924Z,21.67
2023-01-25T05:03:13.760Z,26.23
2023-01-25T05:05:46.022Z,22.48
2023-01-25T05:08:15.019Z,24.38
2023-01-25T05:10:43.807Z,25.23
2023-01-25T05:13:13.519Z,23.45
2023-01-25T05:15:43.643Z,26.05
2023-01-25T05:18:12.385Z,32.35
2023-01-25T05:20:41.185Z,30.58
2023-01-25T05:23:09.470Z,26.27
2023-01-25T05:25:55.054Z,28.67
2023-01-25T05:28:25.035Z,24.92
2023-01-25T05:30:53.719Z,25.40
2023-01-25T05:33:22.349Z,24.20
2023-01-25T05:35:50.516Z,28.67
2023-01-25T05:38:23.219Z,33.67
2023-01-25T05:40:51.793Z,40.28
2023-01-25T05:43:20.220Z,37.80
2023-01-25T05:45:54.866Z,38.38
2023-01-25T05:48:23.579Z,43.17
2023-01-25T05:50:52.105Z,51.17
2023-01-25T05:53:25.899Z,49.72
2023-01-25T05:55:54.500Z,45.83
2023-01-25T05:58:23.893Z,42.85
2023-01-25T06:00:52.852Z,40.97
2023-01-25T06:03:22.874Z,44.67
2023-01-25T06:05:56.120Z,36.70
2023-01-25T06:08:25.152Z,44.28
2023-01-25T06:10:53.587Z,48.85
2023-01-25T06:13:22.385Z,74.22
2023-01-25T06:15:53.492Z,67.70
2023-01-25T06:18:24.629Z,136.10
2023-01-25T06:20:53.460Z,102.95
2023-01-25T06:23:21.890Z,123.78
2023-01-25T06:25:50.516Z,97.57
2023-01-25T06:28:19.173Z,103.75
2023-01-25T06:30:50.573Z,104.40
2023-01-25T06:33:19.123Z,95.45
2023-01-25T06:35:49.051Z,89.32
2023-01-25T06:38:17.606Z,100.72
2023-01-25T06:40:46.613Z,116.03
2023-01-25T06:43:15.161Z,113.65
2023-01-25T06:45:43.413Z,109.88
2023-01-25T06:48:12.931Z,103.80
2023-01-25T06:50:42.772Z,109.00
2023-01-25T06:53:13.329Z,113.32
2023-01-25T06:55:42.153Z,113.85
2023-01-25T06:58:10.444Z,134.98
2023-01-25T07:00:39.595Z,113.20
2023-01-25T07:03:08.151Z,142.13
2023-01-25T07:05:36.567Z,140.40
2023-01-25T07:08:05.381Z,133.38
2023-01-25T07:10:36.859Z,125.30
2023-01-25T07:13:05.121Z,128.77
2023-01-25T07:15:33.736Z,132.65
2023-01-25T07:18:14.943Z,130.60
2023-01-25T07:20:44.868Z,116.70
2023-01-25T07:23:13.135Z,118.03
2023-01-25T07:25:46.713Z,106.25
2023-01-25T07:28:15.757Z,110.63
2023-01-25T07:30:45.048Z,112.82
2023-01-25T07:33:13.723Z,108.93
2023-01-25T07:35:42.061Z,103.50
2023-01-25T07:38:11.720Z,101.68
2023-01-25T07:40:45.753Z,91.57
2023-01-25T07:43:13.912Z,76.20
2023-01-25T07:45:45.466Z,88.53
2023-01-25T07:48:13.848Z,86.55
2023-01-25T07:50:42.240Z,82.57
2023-01-25T07:53:10.941Z,118.78
2023-01-25T07:55:39.584Z,90.47
2023-01-25T07:58:10.152Z,87.38
2023-01-25T08:00:39.018Z,67.43
2023-01-25T08:03:09.085Z,80.88
2023-01-25T08:05:39.448Z,75.90
2023-01-25T08:08:08.369Z,74.05
2023-01-25T08:10:37.576Z,60.65
2023-01-25T08:13:06.916Z,60.75
2023-01-25T08:15:37.307Z,47.10
2023-01-25T08:18:06.087Z,65.75
2023-01-25T08:20:35.300Z,49.40
2023-01-25T08:23:04.047Z,43.80
2023-01-25T08:25:32.254Z,28.42
2023-01-25T08:28:00.860Z,38.65
2023-01-25T08:30:31.620Z,30.52
2023-01-25T08:33:01.628Z,32.20
2023-01-25T08:35:29.711Z,30.70
2023-01-25T08:37:58.450Z,31.67
2023-01-25T08:40:27.919Z,35.63
2023-01-25T08:42:56.146Z,36.13
2023-01-25T08:45:24.266Z,39.67
2023-01-25T08:47:52.936Z,32.47
2023-01-25T08:50:28.661Z,33.50
2023-01-25T08:52:57.198Z,30.65
2023-01-25T08:55:25.466Z,35.15
2023-01-25T08:57:56.514Z,29.58
2023-01-25T09:00:25.994Z,32.33
2023-01-25T09:02:54.553Z,30.70
2023-01-25T09:05:23.378Z,27.35
2023-01-25T09:07:53.563Z,31.05
2023-01-25T09:10:25.122Z,33.90
2023-01-25T09:12:54.529Z,30.73
2023-01-25T09:15:22.973Z,31.67
2023-01-25T09:17:52.208Z,30.83
2023-01-25T09:20:20.886Z,39.13
2023-01-25T09:22:49.995Z,31.17
2023-01-25T09:25:22.645Z,13.07
2023-01-25T09:27:51.133Z,7.70
2023-01-25T09:30:20.148Z,6.20
2023-01-25T09:32:50.537Z,7.28
2023-01-25T09:35:19.056Z,5.47
2023-01-25T09:37:51.594Z,5.20
2023-01-25T09:40:22.120Z,5.32
2023-01-25T09:42:56.534Z,5.15
2023-01-25T09:45:31.799Z,6.38
2023-01-25T09:48:02.025Z,5.25
2023-01-25T09:50:34.338Z,6.90
2023-01-25T09:53:15.576Z,4.95
2023-01-25T09:55:43.773Z,4.07
2023-01-25T09:58:15.828Z,4.45
2023-01-25T10:00:48.126Z,5.00
2023-01-25T10:03:21.749Z,4.30
2023-01-25T10:05:51.481Z,5.13
2023-01-25T10:08:23.778Z,6.55
2023-01-25T10:10:56.013Z,7.07
2023-01-25T10:13:31.848Z,4.97
2023-01-25T10:16:03.339Z,4.80
2023-01-25T10:18:34.754Z,5.07
2023-01-25T10:21:05.228Z,5.82
2023-01-25T10:23:43.028Z,6.18
2023-01-25T10:26:12.830Z,5.70
2023-01-25T10:28:46.791Z,4.63
2023-01-25T10:31:18.383Z,5.22
2023-01-25T10:33:47.327Z,4.38
2023-01-25T10:36:16.772Z,5.18
2023-01-25T10:38:45.518Z,5.50
2023-01-25T10:41:16.848Z,5.18
2023-01-25T10:43:46.859Z,4.35
2023-01-25T10:46:20.716Z,6.32
2023-01-25T10:48:49.034Z,5.18
2023-01-25T10:51:33.692Z,4.78
2023-01-25T10:54:03.735Z,5.38
2023-01-25T10:56:37.122Z,5.32
2023-01-25T10:59:16.732Z,4.85
2023-01-25T11:01:45.328Z,5.30
2023-01-25T11:04:44.331Z,5.57
2023-01-25T11:07:27.021Z,4.97
2023-01-25T11:09:57.145Z,6.38
2023-01-25T11:12:28.508Z,5.18
2023-01-25T11:15:19.786Z,4.80
2023-01-25T11:18:06.221Z,6.70
2023-01-25T11:20:37.253Z,4.82
2023-01-25T11:23:05.705Z,5.07
2023-01-25T11:25:34.897Z,6.55
2023-01-25T11:28:13.887Z,6.63
2023-01-25T11:30:45.483Z,6.70
2023-01-25T11:33:14.725Z,5.63
2023-01-25T11:35:50.556Z,6.40
2023-01-25T11:38:22.439Z,5.70
2023-01-25T11:40:53.942Z,7.70
2023-01-25T11:43:29.288Z,5.93
2023-01-25T11:49:02.700Z,6.28
2023-01-25T11:51:35.275Z,5.72
2023-01-25T11:54:22.857Z,6.30
2023-01-25T11:56:55.674Z,5.50
2023-01-25T11:59:33.831Z,8.60
2023-01-25T12:02:11.074Z,8.65
2023-01-25T12:04:59.751Z,6.13
2023-01-25T12:07:33.241Z,6.15
2023-01-25T12:10:11.027Z,6.22
2023-01-25T12:12:43.075Z,6.43
2023-01-25T12:15:20.973Z,4.63
2023-01-25T12:17:58.969Z,5.65
2023-01-25T12:20:47.036Z,7.75
2023-01-25T12:23:22.050Z,6.20
2023-01-25T12:25:58.173Z,5.72
2023-01-25T12:28:29.512Z,5.78
2023-01-25T12:30:59.450Z,4.82
2023-01-25T12:33:34.051Z,4.78
2023-01-25T12:36:05.701Z,5.68
2023-01-25T12:38:37.092Z,5.60
2023-01-25T12:41:08.524Z,5.68
2023-01-25T12:43:40.328Z,6.28
2023-01-25T12:46:11.648Z,6.20
2023-01-25T12:48:43.049Z,5.82
2023-01-25T12:51:11.758Z,6.15
2023-01-25T12:53:44.026Z,5.30
2023-01-25T12:56:15.375Z,5.70
2023-01-25T12:58:45.989Z,4.57
2023-01-25T13:01:19.151Z,5.32
2023-01-25T13:03:57.957Z,5.22
2023-01-25T13:06:29.689Z,5.60
2023-01-25T13:09:04.236Z,5.25
2023-01-25T13:11:34.864Z,5.03
2023-01-25T13:14:28.445Z,5.68
2023-01-25T13:17:09.794Z,5.50
2023-01-25T13:19:43.384Z,5.15
2023-01-25T13:22:12.644Z,5.57
2023-01-25T13:25:00.233Z,6.90
2023-01-25T13:27:30.083Z,10.00
2023-01-25T13:30:03.501Z,7.65
2023-01-25T13:32:56.757Z,5.50
2023-01-25T13:35:29.740Z,5.68
2023-01-25T13:37:59.375Z,5.10
2023-01-25T13:40:38.497Z,6.20
2023-01-25T13:43:19.507Z,5.75
2023-01-25T13:45:49.886Z,6.80
2023-01-25T13:48:21.557Z,6.88
2023-01-25T13:50:52.327Z,7.00
2023-01-25T13:53:21.442Z,5.85
2023-01-25T13:55:51.150Z,7.10
2023-01-25T13:58:22.718Z,5.68
2023-01-25T14:00:54.030Z,7.88
2023-01-25T14:03:25.013Z,6.60
2023-01-25T14:05:55.058Z,4.93
2023-01-25T14:08:25.013Z,5.95
2023-01-25T14:10:54.016Z,6.55
2023-01-25T14:13:23.944Z,5.68
2023-01-25T14:15:56.415Z,5.95
2023-01-25T14:18:29.868Z,8.55
2023-01-25T14:21:14.454Z,6.15
2023-01-25T14:23:43.146Z,6.18
2023-01-25T14:26:19.091Z,5.60
2023-01-25T14:28:59.408Z,6.70
2023-01-25T14:31:33.139Z,9.10
2023-01-25T14:34:04.254Z,7.13
2023-01-25T14:36:34.483Z,9.43
2023-01-25T14:39:04.966Z,9.55
2023-01-25T14:41:34.515Z,9.02
2023-01-25T14:44:05.410Z,7.38
2023-01-25T14:46:34.984Z,11.85
2023-01-25T14:49:10.360Z,11.02
2023-01-25T14:51:42.747Z,7.63
2023-01-25T14:54:17.006Z,8.13
2023-01-25T14:56:47.032Z,7.88
2023-01-25T14:59:28.566Z,9.63
2023-01-25T15:01:59.118Z,9.05
2023-01-25T15:04:27.979Z,8.30
2023-01-25T15:06:59.042Z,8.18
2023-01-25T15:09:34.254Z,7.60
2023-01-25T15:12:03.034Z,8.00
2023-01-25T15:14:33.277Z,8.90
2023-01-25T15:17:01.544Z,9.82
2023-01-25T15:19:31.396Z,8.95
2023-01-25T15:22:00.512Z,7.07
2023-01-25T15:24:29.335Z,6.90
2023-01-25T15:26:57.563Z,9.13
2023-01-25T15:29:27.202Z,8.52
2023-01-25T15:31:58.123Z,8.77
2023-01-25T15:34:29.585Z,8.65
2023-01-25T15:36:58.197Z,12.30
2023-01-25T15:39:26.835Z,8.45
2023-01-25T15:41:55.145Z,7.30
2023-01-25T15:44:23.862Z,8.30
2023-01-25T15:46:52.499Z,7.93
2023-01-25T15:49:25.103Z,8.00
2023-01-25T15:51:56.858Z,8.60
2023-01-25T15:54:25.678Z,8.20
2023-01-25T15:56:56.394Z,7.43
2023-01-25T15:59:25.638Z,7.60
2023-01-25T16:01:54.483Z,9.45
2023-01-25T16:04:25.326Z,9.95
2023-01-25T16:06:54.079Z,8.55
2023-01-25T16:09:23.527Z,10.60
2023-01-25T16:11:53.883Z,8.90
2023-01-25T16:14:23.748Z,8.05
2023-01-25T16:16:53.594Z,9.02
2023-01-25T16:19:25.031Z,8.40
2023-01-25T16:21:53.719Z,8.07
2023-01-25T16:24:22.314Z,8.82
2023-01-25T16:26:52.097Z,7.75
2023-01-25T16:29:21.701Z,9.85
2023-01-25T16:31:50.709Z,7.32
2023-01-25T16:34:20.296Z,9.27
2023-01-25T16:36:51.268Z,6.72
2023-01-25T16:39:21.008Z,8.85
2023-01-25T16:41:50.325Z,8.20
2023-01-25T16:44:19.286Z,7.82
2023-01-25T16:46:50.233Z,6.85
2023-01-25T16:49:20.155Z,8.00
2023-01-25T16:51:50.930Z,7.65
2023-01-25T16:54:20.669Z,9.77
2023-01-25T16:56:49.384Z,7.72
2023-01-25T16:59:18.626Z,8.25
2023-01-25T17:01:47.550Z,8.57
2023-01-25T17:04:16.306Z,8.52
2023-01-25T17:06:46.163Z,11.07
2023-01-25T17:09:23.679Z,8.05
2023-01-25T17:11:53.718Z,10.02
2023-01-25T17:14:22.225Z,7.75
2023-01-25T17:16:57.439Z,7.82
2023-01-25T17:19:35.619Z,9.57
2023-01-25T17:22:08.027Z,7.40
2023-01-25T17:24:38.719Z,8.55
2023-01-25T17:27:09.439Z,9.77
2023-01-25T17:29:41.074Z,9.75
2023-01-25T17:32:10.672Z,9.75
2023-01-25T17:35:02.210Z,9.63
2023-01-25T17:37:32.868Z,8.30
2023-01-25T17:40:08.880Z,8.30
2023-01-25T17:42:38.583Z,7.60
2023-01-25T17:45:07.974Z,8.23
2023-01-25T17:47:36.644Z,9.73
2023-01-25T17:50:06.467Z,7.97
2023-01-25T17:52:35.590Z,8.10
2023-01-25T17:55:05.298Z,8.55
2023-01-25T17:57:37.468Z,8.05
2023-01-25T18:00:08.729Z,8.13
2023-01-25T18:02:37.764Z,9.00
2023-01-25T18:05:08.064Z,7.80
2023-01-25T18:07:37.002Z,7.65
2023-01-25T18:10:12.278Z,7.97
2023-01-25T18:12:52.965Z,9.80
2023-01-25T18:15:31.805Z,11.25
2023-01-25T18:18:00.554Z,10.38
2023-01-25T18:20:31.617Z,9.85
2023-01-25T18:23:00.221Z,10.35
2023-01-25T18:25:32.297Z,10.07
2023-01-25T18:28:02.849Z,8.45
2023-01-25T18:30:35.485Z,8.38
2023-01-25T18:33:03.785Z,8.85
2023-01-25T18:35:32.863Z,10.43
2023-01-25T18:38:03.012Z,8.95
2023-01-25T18:40:32.175Z,7.90
2023-01-25T18:43:03.244Z,8.35
2023-01-25T18:45:31.900Z,8.50
2023-01-25T18:48:01.495Z,10.90
2023-01-25T18:50:31.249Z,9.43
2023-01-25T18:53:00.260Z,10.10
2023-01-25T18:55:29.269Z,10.15
2023-01-25T18:58:04.025Z,9.50
2023-01-25T19:00:35.311Z,9.60
2023-01-25T19:03:04.386Z,11.50
2023-01-25T19:05:33.534Z,8.40
2023-01-25T19:08:03.215Z,8.55
2023-01-25T19:10:32.441Z,7.90
2023-01-25T19:13:01.464Z,9.43
2023-01-25T19:15:34.035Z,9.20
2023-01-25T19:18:04.534Z,10.10
2023-01-25T19:20:34.467Z,9.68
2023-01-25T19:23:03.093Z,10.57
2023-01-25T19:25:31.507Z,11.48
2023-01-25T19:28:00.898Z,10.77
2023-01-25T19:30:31.652Z,16.13
2023-01-25T19:33:01.741Z,37.30
2023-01-25T19:35:32.105Z,49.75
2023-01-25T19:38:01.203Z,49.60
2023-01-25T19:40:30.145Z,28.38
2023-01-25T19:42:59.196Z,30.58
2023-01-25T19:45:28.438Z,26.85
2023-01-25T19:47:57.784Z,26.40
2023-01-25T19:50:31.757Z,21.75
2023-01-25T19:53:01.481Z,50.38
2023-01-25T19:55:32.876Z,48.75
2023-01-25T19:58:03.095Z,34.45
2023-01-25T20:00:36.062Z,35.40
2023-01-25T20:03:15.952Z,37.95
2023-01-25T20:05:46.999Z,35.88
2023-01-25T20:08:16.616Z,33.25
2023-01-25T20:10:47.218Z,29.45
2023-01-25T20:13:15.624Z,109.57
2023-01-25T20:15:47.511Z,72.35
2023-01-25T20:18:17.342Z,56.25
2023-01-25T20:20:55.170Z,56.90
2023-01-25T20:23:25.398Z,46.38
2023-01-25T20:25:57.833Z,34.55
2023-01-25T20:28:27.532Z,37.40
2023-01-25T20:30:58.510Z,33.30
2023-01-25T20:33:27.480Z,32.55
2023-01-25T20:36:01.934Z,27.90
2023-01-25T20:38:30.905Z,17.42
2023-01-25T20:41:03.049Z,10.88
2023-01-25T20:43:32.204Z,12.43
2023-01-25T20:46:01.014Z,10.43
2023-01-25T20:48:30.043Z,12.82
2023-01-25T20:51:03.715Z,8.95
2023-01-25T20:53:32.833Z,11.43
2023-01-25T20:56:01.783Z,10.88
2023-01-25T20:58:31.416Z,8.07
2023-01-25T21:01:00.331Z,9.23
2023-01-25T21:03:30.124Z,10.65
2023-01-25T21:06:00.609Z,9.15
2023-01-25T21:08:31.601Z,7.95
2023-01-25T21:11:01.291Z,8.93
2023-01-25T21:13:30.368Z,7.78
2023-01-25T21:15:59.300Z,8.65
2023-01-25T21:18:32.117Z,9.30
2023-01-25T21:21:01.337Z,9.30
2023-01-25T21:23:33.531Z,9.13
2023-01-25T21:26:01.904Z,8.45
2023-01-25T21:28:31.016Z,8.50
2023-01-25T21:30:59.772Z,9.82
2023-01-25T21:33:28.524Z,9.23
2023-01-25T21:36:01.587Z,9.85
2023-01-25T21:38:32.105Z,8.38
2023-01-25T21:41:01.453Z,8.48
2023-01-25T21:43:30.468Z,9.68
2023-01-25T21:46:25.385Z,10.00
2023-01-25T21:49:11.527Z,9.60
2023-01-25T21:51:47.064Z,10.23
2023-01-25T21:54:17.716Z,10.10
2023-01-25T21:56:46.268Z,11.77
2023-01-25T21:59:15.158Z,9.85
2023-01-25T22:01:44.308Z,10.80
2023-01-25T22:04:14.252Z,11.75
2023-01-25T22:06:42.816Z,11.85
2023-01-25T22:09:11.783Z,14.30
2023-01-25T22:11:42.179Z,10.15
2023-01-25T22:14:10.745Z,10.30
2023-01-25T22:16:38.918Z,10.18
2023-01-25T22:19:07.605Z,10.45
2023-01-25T22:21:36.162Z,9.57
2023-01-25T22:24:08.161Z,8.63
2023-01-25T22:26:47.677Z,12.57
2023-01-25T22:29:16.156Z,10.88
2023-01-25T22:31:44.896Z,11.38
2023-01-25T22:34:13.783Z,10.80
2023-01-25T22:36:45.227Z,10.93
2023-01-25T22:39:14.980Z,14.93
2023-01-25T22:41:46.879Z,9.98
2023-01-25T22:44:16.700Z,14.73
2023-01-25T22:46:45.041Z,10.73
2023-01-25T22:49:13.585Z,8.70
2023-01-25T22:51:42.117Z,8.40
2023-01-25T22:54:12.125Z,9.10
2023-01-25T22:56:40.620Z,7.43
2023-01-25T22:59:14.888Z,10.50
2023-01-25T23:01:43.820Z,8.50
2023-01-25T23:04:12.082Z,9.05
2023-01-25T23:06:41.457Z,9.30
2023-01-25T23:09:10.056Z,11.75
2023-01-25T23:11:38.542Z,7.70
2023-01-25T23:14:24.970Z,10.75
2023-01-25T23:17:15.049Z,9.10
2023-01-25T23:19:42.959Z,7.07
2023-01-25T23:22:13.637Z,9.90
2023-01-25T23:24:42.016Z,10.07
2023-01-25T23:27:12.659Z,8.50
2023-01-25T23:29:41.638Z,9.90
2023-01-25T23:32:11.617Z,8.13
2023-01-25T23:34:40.196Z,10.93
2023-01-25T23:37:08.802Z,9.35
2023-01-25T23:39:37.710Z,8.07
2023-01-25T23:42:06.005Z,8.60
2023-01-25T23:44:34.795Z,9.57
2023-01-25T23:47:03.416Z,7.88
2023-01-25T23:49:33.518Z,9.10
2023-01-25T23:52:02.136Z,8.20
2023-01-25T23:54:31.081Z,9.55
2023-01-25T23:56:59.584Z,8.38
2023-01-25T23:59:27.814Z,8.00
